sensor_id;sensor_type;location;lat;lon;timestamp;temperature;humidity
72126;SHT31;59999;51.676;22.650;2023-05-16T00:00:34;12.11;94.09
72126;SHT31;59999;51.676;22.650;2023-05-16T00:03:20;12.12;94.09
72126;SHT31;59999;51.676;22.650;2023-05-16T00:05:46;12.11;94.02
72126;SHT31;59999;51.676;22.650;2023-05-16T00:08:12;12.10;93.97
72126;SHT31;59999;51.676;22.650;2023-05-16T00:10:38;12.04;93.92
72126;SHT31;59999;51.676;22.650;2023-05-16T00:13:04;12.01;93.88
72126;SHT31;59999;51.676;22.650;2023-05-16T00:15:32;11.97;93.83
72126;SHT31;59999;51.676;22.650;2023-05-16T00:17:58;11.93;93.74
72126;SHT31;59999;51.676;22.650;2023-05-16T00:20:25;11.90;93.59
72126;SHT31;59999;51.676;22.650;2023-05-16T00:22:52;11.90;93.49
72126;SHT31;59999;51.676;22.650;2023-05-16T00:25:18;11.84;93.42
72126;SHT31;59999;51.676;22.650;2023-05-16T00:27:45;11.84;93.57
72126;SHT31;59999;51.676;22.650;2023-05-16T00:30:11;11.81;93.64
72126;SHT31;59999;51.676;22.650;2023-05-16T00:32:37;11.77;93.69
72126;SHT31;59999;51.676;22.650;2023-05-16T00:35:04;11.75;93.73
72126;SHT31;59999;51.676;22.650;2023-05-16T00:37:30;11.74;93.81
72126;SHT31;59999;51.676;22.650;2023-05-16T00:39:57;11.73;93.91
72126;SHT31;59999;51.676;22.650;2023-05-16T00:42:22;11.67;93.94
72126;SHT31;59999;51.676;22.650;2023-05-16T00:44:48;11.70;94.00
72126;SHT31;59999;51.676;22.650;2023-05-16T00:47:14;11.66;93.99
72126;SHT31;59999;51.676;22.650;2023-05-16T00:49:41;11.70;94.03
72126;SHT31;59999;51.676;22.650;2023-05-16T00:52:07;11.66;93.98
72126;SHT31;59999;51.676;22.650;2023-05-16T00:54:33;11.66;93.98
72126;SHT31;59999;51.676;22.650;2023-05-16T00:56:58;11.59;93.83
72126;SHT31;59999;51.676;22.650;2023-05-16T00:59:25;11.52;93.82
72126;SHT31;59999;51.676;22.650;2023-05-16T01:01:51;11.46;93.77
72126;SHT31;59999;51.676;22.650;2023-05-16T01:04:19;11.44;93.72
72126;SHT31;59999;51.676;22.650;2023-05-16T01:06:45;11.37;93.65
72126;SHT31;59999;51.676;22.650;2023-05-16T01:09:12;11.32;93.73
72126;SHT31;59999;51.676;22.650;2023-05-16T01:12:01;11.29;93.92
72126;SHT31;59999;51.676;22.650;2023-05-16T01:28:23;11.02;94.00
72126;SHT31;59999;51.676;22.650;2023-05-16T01:30:50;10.98;93.94
72126;SHT31;59999;51.676;22.650;2023-05-16T01:33:16;10.94;94.00
72126;SHT31;59999;51.676;22.650;2023-05-16T01:35:49;10.88;93.94
72126;SHT31;59999;51.676;22.650;2023-05-16T01:38:29;10.81;93.91
72126;SHT31;59999;51.676;22.650;2023-05-16T01:41:03;10.78;93.84
72126;SHT31;59999;51.676;22.650;2023-05-16T01:43:38;10.71;93.73
72126;SHT31;59999;51.676;22.650;2023-05-16T01:46:20;10.63;93.67
72126;SHT31;59999;51.676;22.650;2023-05-16T01:49:08;10.53;93.75
72126;SHT31;59999;51.676;22.650;2023-05-16T01:51:44;10.53;93.82
72126;SHT31;59999;51.676;22.650;2023-05-16T01:54:11;10.48;93.95
72126;SHT31;59999;51.676;22.650;2023-05-16T01:56:43;10.46;94.05
72126;SHT31;59999;51.676;22.650;2023-05-16T01:59:15;10.43;94.22
72126;SHT31;59999;51.676;22.650;2023-05-16T02:01:41;10.40;94.32
72126;SHT31;59999;51.676;22.650;2023-05-16T02:04:07;10.40;94.37
72126;SHT31;59999;51.676;22.650;2023-05-16T02:06:34;10.39;94.33
72126;SHT31;59999;51.676;22.650;2023-05-16T02:09:00;10.40;94.38
72126;SHT31;59999;51.676;22.650;2023-05-16T02:11:26;10.39;94.46
72126;SHT31;59999;51.676;22.650;2023-05-16T02:13:52;10.39;94.46
72126;SHT31;59999;51.676;22.650;2023-05-16T02:16:18;10.33;94.33
72126;SHT31;59999;51.676;22.650;2023-05-16T02:18:44;10.26;94.27
72126;SHT31;59999;51.676;22.650;2023-05-16T02:21:10;10.20;94.10
72126;SHT31;59999;51.676;22.650;2023-05-16T02:23:36;10.17;94.00
72126;SHT31;59999;51.676;22.650;2023-05-16T02:26:02;10.12;93.94
72126;SHT31;59999;51.676;22.650;2023-05-16T02:28:29;10.06;93.88
72126;SHT31;59999;51.676;22.650;2023-05-16T02:30:56;9.98;93.78
72126;SHT31;59999;51.676;22.650;2023-05-16T02:33:24;9.92;93.79
72126;SHT31;59999;51.676;22.650;2023-05-16T02:35:50;9.86;93.78
72126;SHT31;59999;51.676;22.650;2023-05-16T02:38:16;9.81;93.87
72126;SHT31;59999;51.676;22.650;2023-05-16T02:40:42;9.78;93.96
72126;SHT31;59999;51.676;22.650;2023-05-16T02:43:08;9.74;94.07
72126;SHT31;59999;51.676;22.650;2023-05-16T02:45:34;9.72;94.14
72126;SHT31;59999;51.676;22.650;2023-05-16T02:48:00;9.71;94.18
72126;SHT31;59999;51.676;22.650;2023-05-16T02:50:26;9.68;94.23
72126;SHT31;59999;51.676;22.650;2023-05-16T02:52:52;9.68;94.29
72126;SHT31;59999;51.676;22.650;2023-05-16T02:55:18;9.67;94.37
72126;SHT31;59999;51.676;22.650;2023-05-16T02:57:44;9.69;94.37
72126;SHT31;59999;51.676;22.650;2023-05-16T03:00:12;9.67;94.36
72126;SHT31;59999;51.676;22.650;2023-05-16T03:02:38;9.72;94.45
72126;SHT31;59999;51.676;22.650;2023-05-16T03:05:04;9.72;94.56
72126;SHT31;59999;51.676;22.650;2023-05-16T03:07:31;9.71;94.50
72126;SHT31;59999;51.676;22.650;2023-05-16T03:09:57;9.74;94.42
72126;SHT31;59999;51.676;22.650;2023-05-16T03:12:22;9.75;94.47
72126;SHT31;59999;51.676;22.650;2023-05-16T03:14:48;9.77;94.58
72126;SHT31;59999;51.676;22.650;2023-05-16T03:17:16;9.79;94.65
72126;SHT31;59999;51.676;22.650;2023-05-16T03:19:42;9.83;94.62
72126;SHT31;59999;51.676;22.650;2023-05-16T03:22:07;9.86;94.65
72126;SHT31;59999;51.676;22.650;2023-05-16T03:24:34;9.89;94.60
72126;SHT31;59999;51.676;22.650;2023-05-16T03:26:59;9.90;94.52
72126;SHT31;59999;51.676;22.650;2023-05-16T03:29:26;9.95;94.49
72126;SHT31;59999;51.676;22.650;2023-05-16T03:31:51;9.98;94.47
72126;SHT31;59999;51.676;22.650;2023-05-16T03:34:18;10.05;94.41
72126;SHT31;59999;51.676;22.650;2023-05-16T03:36:44;10.10;94.40
72126;SHT31;59999;51.676;22.650;2023-05-16T03:39:10;10.19;94.23
72126;SHT31;59999;51.676;22.650;2023-05-16T03:41:36;10.24;94.00
72126;SHT31;59999;51.676;22.650;2023-05-16T03:44:02;10.29;93.76
72126;SHT31;59999;51.676;22.650;2023-05-16T03:46:28;10.34;93.44
72126;SHT31;59999;51.676;22.650;2023-05-16T03:48:54;10.41;93.19
72126;SHT31;59999;51.676;22.650;2023-05-16T03:51:19;10.47;93.01
72126;SHT31;59999;51.676;22.650;2023-05-16T03:53:46;10.50;92.89
72126;SHT31;59999;51.676;22.650;2023-05-16T03:56:12;10.56;92.80
72126;SHT31;59999;51.676;22.650;2023-05-16T03:58:38;10.61;92.61
72126;SHT31;59999;51.676;22.650;2023-05-16T04:01:03;10.67;92.27
72126;SHT31;59999;51.676;22.650;2023-05-16T04:03:29;10.71;92.32
72126;SHT31;59999;51.676;22.650;2023-05-16T04:05:56;10.77;92.05
72126;SHT31;59999;51.676;22.650;2023-05-16T04:08:22;10.79;91.78
72126;SHT31;59999;51.676;22.650;2023-05-16T04:10:48;10.87;91.85
72126;SHT31;59999;51.676;22.650;2023-05-16T04:13:14;10.95;91.83
72126;SHT31;59999;51.676;22.650;2023-05-16T04:15:40;11.06;91.56
72126;SHT31;59999;51.676;22.650;2023-05-16T04:18:08;11.09;91.20
72126;SHT31;59999;51.676;22.650;2023-05-16T04:20:34;11.18;90.87
72126;SHT31;59999;51.676;22.650;2023-05-16T04:23:01;11.22;90.63
72126;SHT31;59999;51.676;22.650;2023-05-16T04:25:27;11.30;90.42
72126;SHT31;59999;51.676;22.650;2023-05-16T04:27:53;11.37;90.16
72126;SHT31;59999;51.676;22.650;2023-05-16T04:30:19;11.50;89.77
72126;SHT31;59999;51.676;22.650;2023-05-16T04:32:45;11.56;89.29
72126;SHT31;59999;51.676;22.650;2023-05-16T04:35:11;11.63;89.13
72126;SHT31;59999;51.676;22.650;2023-05-16T04:37:37;11.70;89.06
72126;SHT31;59999;51.676;22.650;2023-05-16T04:40:04;11.80;89.10
72126;SHT31;59999;51.676;22.650;2023-05-16T04:42:32;11.88;88.49
72126;SHT31;59999;51.676;22.650;2023-05-16T04:44:58;11.91;88.00
72126;SHT31;59999;51.676;22.650;2023-05-16T04:47:24;12.05;87.94
72126;SHT31;59999;51.676;22.650;2023-05-16T04:49:50;12.12;88.01
72126;SHT31;59999;51.676;22.650;2023-05-16T04:52:16;12.21;87.40
72126;SHT31;59999;51.676;22.650;2023-05-16T04:54:42;12.32;87.29
72126;SHT31;59999;51.676;22.650;2023-05-16T04:57:08;12.42;87.05
72126;SHT31;59999;51.676;22.650;2023-05-16T04:59:34;12.49;86.37
72126;SHT31;59999;51.676;22.650;2023-05-16T05:02:00;12.60;86.08
72126;SHT31;59999;51.676;22.650;2023-05-16T05:04:26;12.73;86.29
72126;SHT31;59999;51.676;22.650;2023-05-16T05:06:52;12.81;84.83
72126;SHT31;59999;51.676;22.650;2023-05-16T05:09:18;12.89;84.77
72126;SHT31;59999;51.676;22.650;2023-05-16T05:11:44;12.97;84.42
72126;SHT31;59999;51.676;22.650;2023-05-16T05:14:10;13.07;84.73
72126;SHT31;59999;51.676;22.650;2023-05-16T05:16:37;13.14;84.46
72126;SHT31;59999;51.676;22.650;2023-05-16T05:19:03;13.27;84.38
72126;SHT31;59999;51.676;22.650;2023-05-16T05:21:29;13.35;83.71
72126;SHT31;59999;51.676;22.650;2023-05-16T05:23:55;13.34;83.62
72126;SHT31;59999;51.676;22.650;2023-05-16T05:26:22;13.35;83.72
72126;SHT31;59999;51.676;22.650;2023-05-16T05:28:48;13.39;83.48
72126;SHT31;59999;51.676;22.650;2023-05-16T05:31:14;13.44;83.59
72126;SHT31;59999;51.676;22.650;2023-05-16T05:33:41;13.52;83.51
72126;SHT31;59999;51.676;22.650;2023-05-16T05:36:07;13.58;81.98
72126;SHT31;59999;51.676;22.650;2023-05-16T05:38:33;13.58;81.38
72126;SHT31;59999;51.676;22.650;2023-05-16T05:40:59;13.65;81.80
72126;SHT31;59999;51.676;22.650;2023-05-16T05:43:25;13.66;81.45
72126;SHT31;59999;51.676;22.650;2023-05-16T05:45:51;13.68;81.70
72126;SHT31;59999;51.676;22.650;2023-05-16T05:48:17;13.69;80.50
72126;SHT31;59999;51.676;22.650;2023-05-16T05:50:43;13.80;81.07
72126;SHT31;59999;51.676;22.650;2023-05-16T05:53:09;13.95;81.61
72126;SHT31;59999;51.676;22.650;2023-05-16T05:55:35;13.97;79.84
72126;SHT31;59999;51.676;22.650;2023-05-16T05:58:01;13.95;80.15
72126;SHT31;59999;51.676;22.650;2023-05-16T06:00:27;14.03;80.66
72126;SHT31;59999;51.676;22.650;2023-05-16T06:02:54;14.10;80.02
72126;SHT31;59999;51.676;22.650;2023-05-16T06:05:20;14.09;79.04
72126;SHT31;59999;51.676;22.650;2023-05-16T06:07:46;14.23;80.67
72126;SHT31;59999;51.676;22.650;2023-05-16T06:10:12;14.37;80.54
72126;SHT31;59999;51.676;22.650;2023-05-16T06:12:38;14.52;78.08
72126;SHT31;59999;51.676;22.650;2023-05-16T06:15:04;14.60;78.68
72126;SHT31;59999;51.676;22.650;2023-05-16T06:17:31;14.65;77.95
72126;SHT31;59999;51.676;22.650;2023-05-16T06:19:57;14.72;78.57
72126;SHT31;59999;51.676;22.650;2023-05-16T06:22:23;14.75;77.36
72126;SHT31;59999;51.676;22.650;2023-05-16T06:24:49;14.78;76.93
72126;SHT31;59999;51.676;22.650;2023-05-16T06:27:15;14.82;77.25
72126;SHT31;59999;51.676;22.650;2023-05-16T06:29:41;14.91;77.88
72126;SHT31;59999;51.676;22.650;2023-05-16T06:32:07;14.89;77.25
72126;SHT31;59999;51.676;22.650;2023-05-16T06:34:33;14.98;76.75
72126;SHT31;59999;51.676;22.650;2023-05-16T06:36:59;15.05;76.32
72126;SHT31;59999;51.676;22.650;2023-05-16T06:39:25;15.05;75.34
72126;SHT31;59999;51.676;22.650;2023-05-16T06:41:51;15.19;76.67
72126;SHT31;59999;51.676;22.650;2023-05-16T06:44:18;15.23;76.07
72126;SHT31;59999;51.676;22.650;2023-05-16T06:46:43;15.30;73.73
72126;SHT31;59999;51.676;22.650;2023-05-16T06:49:11;15.44;75.85
72126;SHT31;59999;51.676;22.650;2023-05-16T06:51:36;15.54;74.92
72126;SHT31;59999;51.676;22.650;2023-05-16T06:54:03;15.57;73.41
72126;SHT31;59999;51.676;22.650;2023-05-16T06:56:28;15.64;72.87
72126;SHT31;59999;51.676;22.650;2023-05-16T06:58:56;15.77;74.40
72126;SHT31;59999;51.676;22.650;2023-05-16T07:01:22;15.81;73.43
72126;SHT31;59999;51.676;22.650;2023-05-16T07:03:48;15.92;73.73
72126;SHT31;59999;51.676;22.650;2023-05-16T07:06:14;15.92;72.68
72126;SHT31;59999;51.676;22.650;2023-05-16T07:08:40;15.97;72.37
72126;SHT31;59999;51.676;22.650;2023-05-16T07:11:06;15.97;72.05
72126;SHT31;59999;51.676;22.650;2023-05-16T07:13:32;16.02;73.00
72126;SHT31;59999;51.676;22.650;2023-05-16T07:15:58;16.18;73.51
72126;SHT31;59999;51.676;22.650;2023-05-16T07:18:24;16.19;70.99
72126;SHT31;59999;51.676;22.650;2023-05-16T07:20:49;16.16;70.66
72126;SHT31;59999;51.676;22.650;2023-05-16T07:23:16;16.20;70.58
72126;SHT31;59999;51.676;22.650;2023-05-16T07:25:42;16.25;69.28
72126;SHT31;59999;51.676;22.650;2023-05-16T07:28:08;16.26;69.34
72126;SHT31;59999;51.676;22.650;2023-05-16T07:30:33;16.32;69.67
72126;SHT31;59999;51.676;22.650;2023-05-16T07:32:59;16.38;68.11
72126;SHT31;59999;51.676;22.650;2023-05-16T07:35:25;16.43;67.54
72126;SHT31;59999;51.676;22.650;2023-05-16T07:37:51;16.53;66.80
72126;SHT31;59999;51.676;22.650;2023-05-16T07:40:17;16.60;67.17
72126;SHT31;59999;51.676;22.650;2023-05-16T07:42:45;16.59;66.86
72126;SHT31;59999;51.676;22.650;2023-05-16T07:45:11;16.73;66.22
72126;SHT31;59999;51.676;22.650;2023-05-16T07:47:37;16.81;67.14
72126;SHT31;59999;51.676;22.650;2023-05-16T07:50:03;16.85;65.33
72126;SHT31;59999;51.676;22.650;2023-05-16T07:52:29;16.98;67.33
72126;SHT31;59999;51.676;22.650;2023-05-16T07:54:55;17.04;66.30
72126;SHT31;59999;51.676;22.650;2023-05-16T07:57:21;17.17;67.34
72126;SHT31;59999;51.676;22.650;2023-05-16T07:59:47;17.31;65.49
72126;SHT31;59999;51.676;22.650;2023-05-16T08:02:13;17.46;65.58
72126;SHT31;59999;51.676;22.650;2023-05-16T08:04:41;17.49;62.00
72126;SHT31;59999;51.676;22.650;2023-05-16T08:07:07;17.53;61.17
72126;SHT31;59999;51.676;22.650;2023-05-16T08:09:33;17.57;61.66
72126;SHT31;59999;51.676;22.650;2023-05-16T08:11:59;17.69;63.18
72126;SHT31;59999;51.676;22.650;2023-05-16T08:14:29;17.80;62.70
72126;SHT31;59999;51.676;22.650;2023-05-16T08:16:57;17.82;60.83
72126;SHT31;59999;51.676;22.650;2023-05-16T08:19:23;17.86;58.50
72126;SHT31;59999;51.676;22.650;2023-05-16T08:21:50;17.91;60.60
72126;SHT31;59999;51.676;22.650;2023-05-16T08:24:15;18.04;60.74
72126;SHT31;59999;51.676;22.650;2023-05-16T08:26:41;18.15;57.71
72126;SHT31;59999;51.676;22.650;2023-05-16T08:29:07;18.08;58.11
72126;SHT31;59999;51.676;22.650;2023-05-16T08:31:33;18.10;58.80
72126;SHT31;59999;51.676;22.650;2023-05-16T08:33:59;18.14;58.15
72126;SHT31;59999;51.676;22.650;2023-05-16T08:36:27;18.24;58.63
72126;SHT31;59999;51.676;22.650;2023-05-16T08:38:53;18.42;57.77
72126;SHT31;59999;51.676;22.650;2023-05-16T08:41:19;18.53;58.02
72126;SHT31;59999;51.676;22.650;2023-05-16T08:43:46;18.63;59.54
72126;SHT31;59999;51.676;22.650;2023-05-16T08:46:12;18.73;58.09
72126;SHT31;59999;51.676;22.650;2023-05-16T08:48:40;18.66;57.00
72126;SHT31;59999;51.676;22.650;2023-05-16T08:51:08;18.73;58.73
72126;SHT31;59999;51.676;22.650;2023-05-16T08:53:44;18.76;55.64
72126;SHT31;59999;51.676;22.650;2023-05-16T08:56:15;18.79;62.34
72126;SHT31;59999;51.676;22.650;2023-05-16T08:58:42;18.79;60.77
72126;SHT31;59999;51.676;22.650;2023-05-16T09:01:08;18.92;61.34
72126;SHT31;59999;51.676;22.650;2023-05-16T09:03:38;18.85;62.25
72126;SHT31;59999;51.676;22.650;2023-05-16T09:06:04;18.95;58.48
72126;SHT31;59999;51.676;22.650;2023-05-16T09:08:31;18.96;58.89
72126;SHT31;59999;51.676;22.650;2023-05-16T09:10:57;18.95;59.69
72126;SHT31;59999;51.676;22.650;2023-05-16T09:13:24;18.86;59.98
72126;SHT31;59999;51.676;22.650;2023-05-16T09:18:35;18.93;59.64
72126;SHT31;59999;51.676;22.650;2023-05-16T09:21:04;18.95;59.51
72126;SHT31;59999;51.676;22.650;2023-05-16T09:23:30;19.13;59.76
72126;SHT31;59999;51.676;22.650;2023-05-16T09:25:57;19.27;55.92
72126;SHT31;59999;51.676;22.650;2023-05-16T09:28:24;19.31;57.08
72126;SHT31;59999;51.676;22.650;2023-05-16T09:30:52;19.32;56.74
72126;SHT31;59999;51.676;22.650;2023-05-16T09:33:22;19.34;58.99
72126;SHT31;59999;51.676;22.650;2023-05-16T09:35:58;19.46;59.48
72126;SHT31;59999;51.676;22.650;2023-05-16T09:38:26;19.47;58.28
72126;SHT31;59999;51.676;22.650;2023-05-16T09:40:53;19.35;59.35
72126;SHT31;59999;51.676;22.650;2023-05-16T09:43:24;19.30;58.94
72126;SHT31;59999;51.676;22.650;2023-05-16T09:45:52;19.41;58.37
72126;SHT31;59999;51.676;22.650;2023-05-16T09:48:18;19.47;57.52
72126;SHT31;59999;51.676;22.650;2023-05-16T09:50:54;19.59;58.80
72126;SHT31;59999;51.676;22.650;2023-05-16T09:53:28;19.57;58.74
72126;SHT31;59999;51.676;22.650;2023-05-16T09:58:30;19.75;59.16
72126;SHT31;59999;51.676;22.650;2023-05-16T10:00:57;19.90;58.75
72126;SHT31;59999;51.676;22.650;2023-05-16T10:03:24;20.13;56.59
72126;SHT31;59999;51.676;22.650;2023-05-16T10:05:52;20.20;56.02
72126;SHT31;59999;51.676;22.650;2023-05-16T10:08:23;20.32;54.23
72126;SHT31;59999;51.676;22.650;2023-05-16T10:10:52;20.40;55.00
72126;SHT31;59999;51.676;22.650;2023-05-16T10:13:23;20.47;58.31
72126;SHT31;59999;51.676;22.650;2023-05-16T10:15:55;20.54;55.57
72126;SHT31;59999;51.676;22.650;2023-05-16T10:18:21;20.41;56.42
72126;SHT31;59999;51.676;22.650;2023-05-16T10:20:52;20.22;56.57
72126;SHT31;59999;51.676;22.650;2023-05-16T10:23:20;20.10;57.47
72126;SHT31;59999;51.676;22.650;2023-05-16T10:25:48;20.23;55.59
72126;SHT31;59999;51.676;22.650;2023-05-16T10:28:15;20.29;56.97
72126;SHT31;59999;51.676;22.650;2023-05-16T10:30:43;20.34;56.59
72126;SHT31;59999;51.676;22.650;2023-05-16T10:33:12;20.41;56.37
72126;SHT31;59999;51.676;22.650;2023-05-16T10:35:38;20.51;55.50
72126;SHT31;59999;51.676;22.650;2023-05-16T10:38:06;20.50;54.47
72126;SHT31;59999;51.676;22.650;2023-05-16T10:40:33;20.53;54.58
72126;SHT31;59999;51.676;22.650;2023-05-16T10:43:00;20.51;57.69
72126;SHT31;59999;51.676;22.650;2023-05-16T10:45:27;20.65;54.07
72126;SHT31;59999;51.676;22.650;2023-05-16T10:48:03;20.58;56.27
72126;SHT31;59999;51.676;22.650;2023-05-16T10:50:43;20.75;57.71
72126;SHT31;59999;51.676;22.650;2023-05-16T10:53:17;20.70;54.97
72126;SHT31;59999;51.676;22.650;2023-05-16T11:01:19;20.48;55.97
72126;SHT31;59999;51.676;22.650;2023-05-16T11:06:25;20.57;56.59
72126;SHT31;59999;51.676;22.650;2023-05-16T11:17:19;21.29;53.39
72126;SHT31;59999;51.676;22.650;2023-05-16T11:19:56;21.23;51.22
72126;SHT31;59999;51.676;22.650;2023-05-16T11:22:37;21.41;51.57
72126;SHT31;59999;51.676;22.650;2023-05-16T11:25:08;21.57;51.57
72126;SHT31;59999;51.676;22.650;2023-05-16T11:27:42;21.63;51.83
72126;SHT31;59999;51.676;22.650;2023-05-16T11:30:12;21.59;51.55
72126;SHT31;59999;51.676;22.650;2023-05-16T11:32:42;21.74;52.63
72126;SHT31;59999;51.676;22.650;2023-05-16T11:35:15;21.86;49.98
72126;SHT31;59999;51.676;22.650;2023-05-16T11:37:42;21.87;48.58
72126;SHT31;59999;51.676;22.650;2023-05-16T11:40:10;21.79;48.53
72126;SHT31;59999;51.676;22.650;2023-05-16T11:42:45;21.59;48.81
72126;SHT31;59999;51.676;22.650;2023-05-16T11:45:19;21.45;48.52
72126;SHT31;59999;51.676;22.650;2023-05-16T11:47:47;21.39;48.38
72126;SHT31;59999;51.676;22.650;2023-05-16T11:50:18;21.23;48.75
72126;SHT31;59999;51.676;22.650;2023-05-16T11:52:47;21.25;49.92
72126;SHT31;59999;51.676;22.650;2023-05-16T11:55:15;21.21;48.06
72126;SHT31;59999;51.676;22.650;2023-05-16T11:57:43;21.45;51.27
72126;SHT31;59999;51.676;22.650;2023-05-16T12:02:46;21.97;48.40
72126;SHT31;59999;51.676;22.650;2023-05-16T12:05:16;21.83;48.26
72126;SHT31;59999;51.676;22.650;2023-05-16T12:07:44;21.71;45.94
72126;SHT31;59999;51.676;22.650;2023-05-16T12:10:11;21.76;47.92
72126;SHT31;59999;51.676;22.650;2023-05-16T12:12:41;21.86;48.21
72126;SHT31;59999;51.676;22.650;2023-05-16T12:15:08;21.90;47.08
72126;SHT31;59999;51.676;22.650;2023-05-16T12:17:35;21.64;46.64
72126;SHT31;59999;51.676;22.650;2023-05-16T12:20:03;21.50;46.54
72126;SHT31;59999;51.676;22.650;2023-05-16T12:22:38;21.56;46.98
72126;SHT31;59999;51.676;22.650;2023-05-16T12:25:27;21.56;47.13
72126;SHT31;59999;51.676;22.650;2023-05-16T12:27:54;21.54;47.09
72126;SHT31;59999;51.676;22.650;2023-05-16T12:30:25;21.57;47.94
72126;SHT31;59999;51.676;22.650;2023-05-16T12:33:02;21.69;47.32
72126;SHT31;59999;51.676;22.650;2023-05-16T12:35:31;21.87;49.10
72126;SHT31;59999;51.676;22.650;2023-05-16T12:38:08;21.81;47.01
72126;SHT31;59999;51.676;22.650;2023-05-16T12:40:38;21.84;47.45
72126;SHT31;59999;51.676;22.650;2023-05-16T12:43:12;21.93;48.13
72126;SHT31;59999;51.676;22.650;2023-05-16T12:45:38;21.93;45.92
72126;SHT31;59999;51.676;22.650;2023-05-16T12:48:05;22.12;47.01
72126;SHT31;59999;51.676;22.650;2023-05-16T12:50:37;22.28;45.16
72126;SHT31;59999;51.676;22.650;2023-05-16T12:53:04;22.25;44.33
72126;SHT31;59999;51.676;22.650;2023-05-16T12:55:30;22.25;45.42
72126;SHT31;59999;51.676;22.650;2023-05-16T12:57:56;22.51;48.04
72126;SHT31;59999;51.676;22.650;2023-05-16T13:00:22;22.73;47.56
72126;SHT31;59999;51.676;22.650;2023-05-16T13:02:49;22.77;47.48
72126;SHT31;59999;51.676;22.650;2023-05-16T13:05:15;22.80;46.28
72126;SHT31;59999;51.676;22.650;2023-05-16T13:07:42;22.72;44.92
72126;SHT31;59999;51.676;22.650;2023-05-16T13:10:09;22.63;46.35
72126;SHT31;59999;51.676;22.650;2023-05-16T13:12:40;22.60;46.21
72126;SHT31;59999;51.676;22.650;2023-05-16T13:15:07;22.49;45.10
72126;SHT31;59999;51.676;22.650;2023-05-16T13:17:34;22.47;46.04
72126;SHT31;59999;51.676;22.650;2023-05-16T13:20:02;22.38;45.70
72126;SHT31;59999;51.676;22.650;2023-05-16T13:22:35;22.39;46.32
72126;SHT31;59999;51.676;22.650;2023-05-16T13:25:01;22.39;46.37
72126;SHT31;59999;51.676;22.650;2023-05-16T13:27:29;22.42;46.79
72126;SHT31;59999;51.676;22.650;2023-05-16T13:29:55;22.45;47.68
72126;SHT31;59999;51.676;22.650;2023-05-16T13:32:24;22.58;45.26
72126;SHT31;59999;51.676;22.650;2023-05-16T13:34:50;22.59;45.00
72126;SHT31;59999;51.676;22.650;2023-05-16T13:37:17;22.60;44.75
72126;SHT31;59999;51.676;22.650;2023-05-16T13:39:42;22.55;44.96
72126;SHT31;59999;51.676;22.650;2023-05-16T13:42:09;22.58;45.88
72126;SHT31;59999;51.676;22.650;2023-05-16T13:44:34;22.55;44.40
72126;SHT31;59999;51.676;22.650;2023-05-16T13:47:01;22.65;45.71
72126;SHT31;59999;51.676;22.650;2023-05-16T13:49:27;22.63;48.93
72126;SHT31;59999;51.676;22.650;2023-05-16T13:51:53;22.75;49.80
72126;SHT31;59999;51.676;22.650;2023-05-16T13:54:19;22.86;49.27
72126;SHT31;59999;51.676;22.650;2023-05-16T13:56:46;23.13;49.48
72126;SHT31;59999;51.676;22.650;2023-05-16T13:59:12;23.51;49.79
72126;SHT31;59999;51.676;22.650;2023-05-16T14:01:39;23.76;46.80
72126;SHT31;59999;51.676;22.650;2023-05-16T14:04:06;23.86;45.90
72126;SHT31;59999;51.676;22.650;2023-05-16T14:06:32;23.81;47.08
72126;SHT31;59999;51.676;22.650;2023-05-16T14:08:58;23.62;46.69
72126;SHT31;59999;51.676;22.650;2023-05-16T14:11:24;23.47;46.94
72126;SHT31;59999;51.676;22.650;2023-05-16T14:13:52;22.93;48.43
72126;SHT31;59999;51.676;22.650;2023-05-16T14:16:19;22.82;49.00
72126;SHT31;59999;51.676;22.650;2023-05-16T14:18:45;22.56;48.52
72126;SHT31;59999;51.676;22.650;2023-05-16T14:21:11;22.39;48.58
72126;SHT31;59999;51.676;22.650;2023-05-16T14:23:38;22.25;49.42
72126;SHT31;59999;51.676;22.650;2023-05-16T14:26:05;22.01;50.19
72126;SHT31;59999;51.676;22.650;2023-05-16T14:28:31;21.80;51.75
72126;SHT31;59999;51.676;22.650;2023-05-16T14:31:00;21.63;52.93
72126;SHT31;59999;51.676;22.650;2023-05-16T14:33:26;21.47;54.11
72126;SHT31;59999;51.676;22.650;2023-05-16T14:35:52;21.29;56.07
72126;SHT31;59999;51.676;22.650;2023-05-16T14:38:18;21.16;56.22
72126;SHT31;59999;51.676;22.650;2023-05-16T14:40:45;20.94;56.51
72126;SHT31;59999;51.676;22.650;2023-05-16T14:43:11;20.74;57.36
72126;SHT31;59999;51.676;22.650;2023-05-16T14:45:37;20.67;57.82
72126;SHT31;59999;51.676;22.650;2023-05-16T14:48:06;20.63;56.86
72126;SHT31;59999;51.676;22.650;2023-05-16T14:50:33;20.54;56.78
72126;SHT31;59999;51.676;22.650;2023-05-16T14:52:58;20.39;57.81
72126;SHT31;59999;51.676;22.650;2023-05-16T14:55:25;20.37;57.47
72126;SHT31;59999;51.676;22.650;2023-05-16T14:57:51;20.26;58.35
72126;SHT31;59999;51.676;22.650;2023-05-16T15:00:22;20.20;58.15
72126;SHT31;59999;51.676;22.650;2023-05-16T15:02:49;20.16;58.88
72126;SHT31;59999;51.676;22.650;2023-05-16T15:05:15;20.12;59.33
72126;SHT31;59999;51.676;22.650;2023-05-16T15:07:41;20.05;58.28
72126;SHT31;59999;51.676;22.650;2023-05-16T15:10:08;19.93;58.80
72126;SHT31;59999;51.676;22.650;2023-05-16T15:12:35;19.88;59.24
72126;SHT31;59999;51.676;22.650;2023-05-16T15:15:01;19.86;59.35
72126;SHT31;59999;51.676;22.650;2023-05-16T15:17:27;19.89;60.57
72126;SHT31;59999;51.676;22.650;2023-05-16T15:19:53;19.85;59.43
72126;SHT31;59999;51.676;22.650;2023-05-16T15:22:20;19.79;59.81
72126;SHT31;59999;51.676;22.650;2023-05-16T15:24:45;19.79;60.34
72126;SHT31;59999;51.676;22.650;2023-05-16T15:27:12;19.78;60.44
72126;SHT31;59999;51.676;22.650;2023-05-16T15:29:37;19.72;60.08
72126;SHT31;59999;51.676;22.650;2023-05-16T15:32:04;19.64;60.65
72126;SHT31;59999;51.676;22.650;2023-05-16T15:34:30;19.48;60.31
72126;SHT31;59999;51.676;22.650;2023-05-16T15:36:57;19.37;60.63
72126;SHT31;59999;51.676;22.650;2023-05-16T15:39:23;19.26;61.27
72126;SHT31;59999;51.676;22.650;2023-05-16T15:41:52;19.16;61.14
72126;SHT31;59999;51.676;22.650;2023-05-16T15:44:18;19.09;61.28
72126;SHT31;59999;51.676;22.650;2023-05-16T15:46:44;19.04;61.92
72126;SHT31;59999;51.676;22.650;2023-05-16T15:49:09;19.04;62.66
72126;SHT31;59999;51.676;22.650;2023-05-16T15:51:37;19.02;62.68
72126;SHT31;59999;51.676;22.650;2023-05-16T15:54:03;19.00;62.56
72126;SHT31;59999;51.676;22.650;2023-05-16T15:56:30;18.98;61.74